sensor_id;sensor_type;location;lat;lon;timestamp;pressure;altitude;pressure_sealevel;temperature;humidity
55263;BME280;41125;48.752;9.168;2023-03-15T00:00:01;96419.06;;;1.53;87.25
55263;BME280;41125;48.752;9.168;2023-03-15T00:00:33;96414.53;;;1.53;87.17
55263;BME280;41125;48.752;9.168;2023-03-15T00:01:17;96420.13;;;1.52;87.48
55263;BME280;41125;48.752;9.168;2023-03-15T00:01:49;96425.00;;;1.55;87.66
55263;BME280;41125;48.752;9.168;2023-03-15T00:02:21;96424.19;;;1.54;87.12
55263;BME280;41125;48.752;9.168;2023-03-15T00:02:52;96426.78;;;1.49;87.72
55263;BME280;41125;48.752;9.168;2023-03-15T00:03:28;96421.09;;;1.46;87.77
55263;BME280;41125;48.752;9.168;2023-03-15T00:04:00;96428.56;;;1.44;87.89
55263;BME280;41125;48.752;9.168;2023-03-15T00:04:31;96422.91;;;1.40;87.89
55263;BME280;41125;48.752;9.168;2023-03-15T00:05:03;96434.66;;;1.39;88.04
55263;BME280;41125;48.752;9.168;2023-03-15T00:05:35;96431.47;;;1.42;87.76
55263;BME280;41125;48.752;9.168;2023-03-15T00:06:08;96434.84;;;1.32;87.24
55263;BME280;41125;48.752;9.168;2023-03-15T00:06:40;96441.72;;;1.28;88.15
55263;BME280;41125;48.752;9.168;2023-03-15T00:07:12;96439.13;;;1.33;88.17
55263;BME280;41125;48.752;9.168;2023-03-15T00:07:43;96449.91;;;1.39;88.35
55263;BME280;41125;48.752;9.168;2023-03-15T00:08:15;96440.31;;;1.43;87.76
55263;BME280;41125;48.752;9.168;2023-03-15T00:08:46;96444.38;;;1.45;87.75
55263;BME280;41125;48.752;9.168;2023-03-15T00:09:17;96437.16;;;1.46;87.47
55263;BME280;41125;48.752;9.168;2023-03-15T00:09:49;96451.25;;;1.41;87.70
55263;BME280;41125;48.752;9.168;2023-03-15T00:10:21;96444.59;;;1.44;87.46
55263;BME280;41125;48.752;9.168;2023-03-15T00:10:52;96449.94;;;1.44;87.79
55263;BME280;41125;48.752;9.168;2023-03-15T00:11:24;96453.34;;;1.39;87.91
55263;BME280;41125;48.752;9.168;2023-03-15T00:11:55;96458.41;;;1.36;88.69
55263;BME280;41125;48.752;9.168;2023-03-15T00:12:26;96460.53;;;1.33;88.75
55263;BME280;41125;48.752;9.168;2023-03-15T00:12:58;96463.13;;;1.28;88.86
55263;BME280;41125;48.752;9.168;2023-03-15T00:13:30;96466.28;;;1.25;89.38
55263;BME280;41125;48.752;9.168;2023-03-15T00:14:02;96466.03;;;1.27;89.72
55263;BME280;41125;48.752;9.168;2023-03-15T00:14:35;96464.31;;;1.38;88.58
55263;BME280;41125;48.752;9.168;2023-03-15T00:15:09;96474.09;;;1.49;87.35
55263;BME280;41125;48.752;9.168;2023-03-15T00:15:48;96474.09;;;1.49;86.93
55263;BME280;41125;48.752;9.168;2023-03-15T00:16:20;96467.69;;;1.50;87.07
55263;BME280;41125;48.752;9.168;2023-03-15T00:16:53;96471.81;;;1.41;87.13
55263;BME280;41125;48.752;9.168;2023-03-15T00:17:25;96472.25;;;1.32;87.30
55263;BME280;41125;48.752;9.168;2023-03-15T00:17:56;96473.81;;;1.28;88.44
55263;BME280;41125;48.752;9.168;2023-03-15T00:18:27;96476.06;;;1.37;88.77
55263;BME280;41125;48.752;9.168;2023-03-15T00:18:59;96477.13;;;1.36;88.61
55263;BME280;41125;48.752;9.168;2023-03-15T00:19:30;96480.28;;;1.32;88.87
55263;BME280;41125;48.752;9.168;2023-03-15T00:20:03;96482.38;;;1.30;89.05
55263;BME280;41125;48.752;9.168;2023-03-15T00:20:37;96493.16;;;1.36;89.10
55263;BME280;41125;48.752;9.168;2023-03-15T00:21:08;96498.75;;;1.34;88.98
55263;BME280;41125;48.752;9.168;2023-03-15T00:21:40;96492.12;;;1.37;88.12
55263;BME280;41125;48.752;9.168;2023-03-15T00:22:13;96492.12;;;1.37;88.40
55263;BME280;41125;48.752;9.168;2023-03-15T00:22:44;96487.63;;;1.42;87.87
55263;BME280;41125;48.752;9.168;2023-03-15T00:23:16;96494.84;;;1.42;87.23
55263;BME280;41125;48.752;9.168;2023-03-15T00:23:48;96493.88;;;1.48;87.49
55263;BME280;41125;48.752;9.168;2023-03-15T00:24:20;96493.63;;;1.49;87.00
55263;BME280;41125;48.752;9.168;2023-03-15T00:24:51;96494.03;;;1.58;87.38
55263;BME280;41125;48.752;9.168;2023-03-15T00:25:23;96492.00;;;1.65;87.01
55263;BME280;41125;48.752;9.168;2023-03-15T00:25:54;96501.16;;;1.69;86.39
55263;BME280;41125;48.752;9.168;2023-03-15T00:26:28;96494.59;;;1.60;86.33
55263;BME280;41125;48.752;9.168;2023-03-15T00:27:02;96496.69;;;1.58;86.84
55263;BME280;41125;48.752;9.168;2023-03-15T00:27:34;96493.78;;;1.43;86.95
55263;BME280;41125;48.752;9.168;2023-03-15T00:28:05;96494.03;;;1.41;87.54
55263;BME280;41125;48.752;9.168;2023-03-15T00:28:37;96498.16;;;1.49;87.17
55263;BME280;41125;48.752;9.168;2023-03-15T00:29:09;96495.97;;;1.46;87.24
55263;BME280;41125;48.752;9.168;2023-03-15T00:29:40;96488.37;;;1.38;87.49
55263;BME280;41125;48.752;9.168;2023-03-15T00:30:14;96492.59;;;1.33;88.00
55263;BME280;41125;48.752;9.168;2023-03-15T00:30:46;96493.09;;;1.30;88.22
55263;BME280;41125;48.752;9.168;2023-03-15T00:31:19;96494.22;;;1.34;88.87
55263;BME280;41125;48.752;9.168;2023-03-15T00:31:52;96500.84;;;1.32;88.51
55263;BME280;41125;48.752;9.168;2023-03-15T00:32:25;96494.13;;;1.29;89.04
55263;BME280;41125;48.752;9.168;2023-03-15T00:32:56;96498.91;;;1.27;89.21
55263;BME280;41125;48.752;9.168;2023-03-15T00:33:28;96496.16;;;1.22;89.36
55263;BME280;41125;48.752;9.168;2023-03-15T00:33:59;96501.50;;;1.22;89.86
55263;BME280;41125;48.752;9.168;2023-03-15T00:34:31;96504.00;;;1.29;89.63
55263;BME280;41125;48.752;9.168;2023-03-15T00:35:04;96495.34;;;1.39;88.01
55263;BME280;41125;48.752;9.168;2023-03-15T00:35:43;96502.56;;;1.38;88.01
55263;BME280;41125;48.752;9.168;2023-03-15T00:36:15;96501.31;;;1.46;87.86
55263;BME280;41125;48.752;9.168;2023-03-15T00:36:46;96506.91;;;1.61;86.71
55263;BME280;41125;48.752;9.168;2023-03-15T00:37:17;96503.31;;;1.72;86.14
55263;BME280;41125;48.752;9.168;2023-03-15T00:37:55;96500.00;;;1.65;85.58
55263;BME280;41125;48.752;9.168;2023-03-15T00:38:31;96510.47;;;1.66;86.49
55263;BME280;41125;48.752;9.168;2023-03-15T00:39:04;96508.75;;;1.60;86.60
55263;BME280;41125;48.752;9.168;2023-03-15T00:39:35;96507.88;;;1.55;87.30
55263;BME280;41125;48.752;9.168;2023-03-15T00:40:09;96510.37;;;1.45;87.56
55263;BME280;41125;48.752;9.168;2023-03-15T00:40:42;96500.38;;;1.35;87.87
55263;BME280;41125;48.752;9.168;2023-03-15T00:41:16;96509.78;;;1.38;88.65
55263;BME280;41125;48.752;9.168;2023-03-15T00:41:50;96507.00;;;1.32;88.61
55263;BME280;41125;48.752;9.168;2023-03-15T00:42:27;96509.91;;;1.48;87.73
55263;BME280;41125;48.752;9.168;2023-03-15T00:42:58;96508.94;;;1.54;87.52
55263;BME280;41125;48.752;9.168;2023-03-15T00:43:30;96512.19;;;1.56;86.95
55263;BME280;41125;48.752;9.168;2023-03-15T00:44:02;96512.66;;;1.53;87.32
55263;BME280;41125;48.752;9.168;2023-03-15T00:44:34;96506.66;;;1.46;87.64
55263;BME280;41125;48.752;9.168;2023-03-15T00:45:07;96512.00;;;1.46;87.90
55263;BME280;41125;48.752;9.168;2023-03-15T00:45:38;96513.16;;;1.50;87.87
55263;BME280;41125;48.752;9.168;2023-03-15T00:46:10;96519.78;;;1.47;87.87
55263;BME280;41125;48.752;9.168;2023-03-15T00:46:42;96516.38;;;1.52;87.35
55263;BME280;41125;48.752;9.168;2023-03-15T00:47:14;96510.37;;;1.45;87.17
55263;BME280;41125;48.752;9.168;2023-03-15T00:47:48;96520.13;;;1.34;87.44
55263;BME280;41125;48.752;9.168;2023-03-15T00:49:28;96512.97;;;1.40;88.63
55263;BME280;41125;48.752;9.168;2023-03-15T00:50:00;96517.22;;;1.36;88.37
55263;BME280;41125;48.752;9.168;2023-03-15T00:50:31;96511.06;;;1.35;88.79
55263;BME280;41125;48.752;9.168;2023-03-15T00:51:13;96517.78;;;1.38;88.67
55263;BME280;41125;48.752;9.168;2023-03-15T00:51:45;96520.47;;;1.38;88.23
55263;BME280;41125;48.752;9.168;2023-03-15T00:52:17;96517.22;;;1.36;88.61
55263;BME280;41125;48.752;9.168;2023-03-15T00:52:49;96520.38;;;1.32;88.59
55263;BME280;41125;48.752;9.168;2023-03-15T00:53:20;96521.44;;;1.31;89.19
55263;BME280;41125;48.752;9.168;2023-03-15T00:53:52;96527.75;;;1.25;89.04
55263;BME280;41125;48.752;9.168;2023-03-15T00:54:24;96528.88;;;1.29;89.36
55263;BME280;41125;48.752;9.168;2023-03-15T00:54:55;96529.69;;;1.30;89.15
55263;BME280;41125;48.752;9.168;2023-03-15T00:55:27;96529.38;;;1.26;89.19
55263;BME280;41125;48.752;9.168;2023-03-15T00:56:02;96542.16;;;1.24;89.07
55263;BME280;41125;48.752;9.168;2023-03-15T00:56:37;96542.50;;;1.28;89.68
55263;BME280;41125;48.752;9.168;2023-03-15T00:57:08;96542.81;;;1.31;89.69
55263;BME280;41125;48.752;9.168;2023-03-15T00:57:41;96544.34;;;1.27;89.53
55263;BME280;41125;48.752;9.168;2023-03-15T00:58:13;96550.75;;;1.26;89.69
55263;BME280;41125;48.752;9.168;2023-03-15T00:58:44;96551.31;;;1.28;89.95
55263;BME280;41125;48.752;9.168;2023-03-15T00:59:16;96545.16;;;1.45;88.24
55263;BME280;41125;48.752;9.168;2023-03-15T00:59:49;96545.56;;;1.53;87.22
55263;BME280;41125;48.752;9.168;2023-03-15T01:00:23;96548.78;;;1.55;86.65
55263;BME280;41125;48.752;9.168;2023-03-15T01:00:54;96556.25;;;1.53;87.12
55263;BME280;41125;48.752;9.168;2023-03-15T01:01:27;96552.69;;;1.48;87.00
55263;BME280;41125;48.752;9.168;2023-03-15T01:02:03;96561.44;;;1.43;87.72
55263;BME280;41125;48.752;9.168;2023-03-15T01:02:35;96557.88;;;1.38;87.69
55263;BME280;41125;48.752;9.168;2023-03-15T01:03:07;96554.66;;;1.36;88.21
55263;BME280;41125;48.752;9.168;2023-03-15T01:03:42;96560.16;;;1.29;88.46
55263;BME280;41125;48.752;9.168;2023-03-15T01:04:14;96558.19;;;1.24;88.82
55263;BME280;41125;48.752;9.168;2023-03-15T01:04:45;96559.47;;;1.22;89.05
55263;BME280;41125;48.752;9.168;2023-03-15T01:05:20;96558.44;;;1.23;89.56
55263;BME280;41125;48.752;9.168;2023-03-15T01:05:52;96566.78;;;1.26;89.45
55263;BME280;41125;48.752;9.168;2023-03-15T01:06:27;96566.78;;;1.26;89.06
55263;BME280;41125;48.752;9.168;2023-03-15T01:06:59;96559.81;;;1.25;88.74
55263;BME280;41125;48.752;9.168;2023-03-15T01:07:31;96557.38;;;1.24;88.94
55263;BME280;41125;48.752;9.168;2023-03-15T01:08:04;96559.50;;;1.39;87.48
55263;BME280;41125;48.752;9.168;2023-03-15T01:08:35;96560.31;;;1.56;85.81
55263;BME280;41125;48.752;9.168;2023-03-15T01:09:08;96558.69;;;1.55;85.10
55263;BME280;41125;48.752;9.168;2023-03-15T01:09:39;96565.00;;;1.49;85.20
55263;BME280;41125;48.752;9.168;2023-03-15T01:10:13;96563.53;;;1.41;86.05
55263;BME280;41125;48.752;9.168;2023-03-15T01:10:45;96570.69;;;1.36;86.63
55263;BME280;41125;48.752;9.168;2023-03-15T01:11:19;96567.94;;;1.30;86.99
55263;BME280;41125;48.752;9.168;2023-03-15T01:11:52;96559.81;;;1.25;87.74
55263;BME280;41125;48.752;9.168;2023-03-15T01:12:24;96566.69;;;1.21;87.62
55263;BME280;41125;48.752;9.168;2023-03-15T01:12:55;96562.87;;;1.17;88.24
55263;BME280;41125;48.752;9.168;2023-03-15T01:13:26;96564.81;;;1.22;88.39
55263;BME280;41125;48.752;9.168;2023-03-15T01:13:58;96570.97;;;1.22;88.55
55263;BME280;41125;48.752;9.168;2023-03-15T01:14:30;96565.31;;;1.19;88.20
55263;BME280;41125;48.752;9.168;2023-03-15T01:15:04;96566.25;;;1.13;88.20
55263;BME280;41125;48.752;9.168;2023-03-15T01:15:36;96566.75;;;1.10;88.70
55263;BME280;41125;48.752;9.168;2023-03-15T01:16:10;96571.75;;;1.06;88.53
55263;BME280;41125;48.752;9.168;2023-03-15T01:16:44;96569.03;;;1.01;89.12
55263;BME280;41125;48.752;9.168;2023-03-15T01:17:16;96566.25;;;0.96;89.42
55263;BME280;41125;48.752;9.168;2023-03-15T01:17:47;96565.69;;;0.94;89.47
55263;BME280;41125;48.752;9.168;2023-03-15T01:18:18;96572.06;;;0.93;89.61
55263;BME280;41125;48.752;9.168;2023-03-15T01:18:50;96568.84;;;0.91;89.79
55263;BME280;41125;48.752;9.168;2023-03-15T01:19:22;96568.00;;;0.90;90.03
55263;BME280;41125;48.752;9.168;2023-03-15T01:19:53;96566.41;;;0.89;90.51
55263;BME280;41125;48.752;9.168;2023-03-15T01:20:25;96567.41;;;1.00;90.24
55263;BME280;41125;48.752;9.168;2023-03-15T01:20:57;96566.34;;;1.01;89.37
55263;BME280;41125;48.752;9.168;2023-03-15T01:21:30;96564.16;;;0.98;88.90
55263;BME280;41125;48.752;9.168;2023-03-15T01:22:01;96570.78;;;0.95;89.03
55263;BME280;41125;48.752;9.168;2023-03-15T01:22:33;96567.53;;;0.93;89.28
55263;BME280;41125;48.752;9.168;2023-03-15T01:23:04;96576.59;;;0.92;89.47
55263;BME280;41125;48.752;9.168;2023-03-15T01:23:35;96574.16;;;0.91;89.54
55263;BME280;41125;48.752;9.168;2023-03-15T01:24:11;96569.31;;;0.88;89.89
55263;BME280;41125;48.752;9.168;2023-03-15T01:24:46;96568.16;;;0.84;90.54
55263;BME280;41125;48.752;9.168;2023-03-15T01:25:18;96574.53;;;0.83;90.79
55263;BME280;41125;48.752;9.168;2023-03-15T01:25:53;96579.78;;;0.78;90.89
55263;BME280;41125;48.752;9.168;2023-03-15T01:26:28;96585.59;;;0.75;91.07
55263;BME280;41125;48.752;9.168;2023-03-15T01:26:59;96578.06;;;0.72;91.59
55263;BME280;41125;48.752;9.168;2023-03-15T01:27:34;96583.34;;;0.66;91.67
55263;BME280;41125;48.752;9.168;2023-03-15T01:28:07;96578.00;;;0.66;91.92
55263;BME280;41125;48.752;9.168;2023-03-15T01:28:39;96574.28;;;0.68;91.86
55263;BME280;41125;48.752;9.168;2023-03-15T01:29:10;96581.47;;;0.67;91.78
55263;BME280;41125;48.752;9.168;2023-03-15T01:29:43;96585.81;;;0.85;91.48
55263;BME280;41125;48.752;9.168;2023-03-15T01:30:15;96580.47;;;0.85;90.36
55263;BME280;41125;48.752;9.168;2023-03-15T01:30:51;96581.19;;;0.80;89.89
55263;BME280;41125;48.752;9.168;2023-03-15T01:31:27;96581.88;;;0.76;90.06
55263;BME280;41125;48.752;9.168;2023-03-15T01:32:01;96578.56;;;0.69;89.98
55263;BME280;41125;48.752;9.168;2023-03-15T01:32:32;96580.66;;;0.66;90.39
55263;BME280;41125;48.752;9.168;2023-03-15T01:33:03;96579.22;;;0.76;90.41
55263;BME280;41125;48.752;9.168;2023-03-15T01:33:35;96580.84;;;0.77;90.13
55263;BME280;41125;48.752;9.168;2023-03-15T01:34:06;96583.03;;;0.80;89.94
55263;BME280;41125;48.752;9.168;2023-03-15T01:34:38;96576.06;;;0.79;90.25
55263;BME280;41125;48.752;9.168;2023-03-15T01:35:11;96578.97;;;0.77;90.07
55263;BME280;41125;48.752;9.168;2023-03-15T01:35:43;96577.81;;;0.73;89.98
55263;BME280;41125;48.752;9.168;2023-03-15T01:36:16;96574.59;;;0.71;90.14
55263;BME280;41125;48.752;9.168;2023-03-15T01:36:50;96578.56;;;0.69;90.05
55263;BME280;41125;48.752;9.168;2023-03-15T01:37:25;96585.44;;;0.64;90.16
55263;BME280;41125;48.752;9.168;2023-03-15T01:38:01;96583.00;;;0.63;90.25
55263;BME280;41125;48.752;9.168;2023-03-15T01:38:32;96585.66;;;0.63;90.42
55263;BME280;41125;48.752;9.168;2023-03-15T01:39:04;96583.56;;;0.65;90.52
55263;BME280;41125;48.752;9.168;2023-03-15T01:39:35;96580.25;;;0.75;90.68
55263;BME280;41125;48.752;9.168;2023-03-15T01:40:10;96585.94;;;0.78;90.36
55263;BME280;41125;48.752;9.168;2023-03-15T01:40:43;96586.41;;;0.75;89.98
55263;BME280;41125;48.752;9.168;2023-03-15T01:41:16;96590.47;;;0.78;89.87
55263;BME280;41125;48.752;9.168;2023-03-15T01:41:49;96592.56;;;0.76;89.96
55263;BME280;41125;48.752;9.168;2023-03-15T01:42:21;96592.00;;;0.74;89.96
55263;BME280;41125;48.752;9.168;2023-03-15T01:43:15;96594.09;;;0.72;90.07
55263;BME280;41125;48.752;9.168;2023-03-15T01:43:46;96586.66;;;0.74;90.57
55263;BME280;41125;48.752;9.168;2023-03-15T01:44:19;96590.12;;;0.74;90.23
55263;BME280;41125;48.752;9.168;2023-03-15T01:44:57;96590.84;;;0.70;90.23
55263;BME280;41125;48.752;9.168;2023-03-15T01:46:53;96590.19;;;0.62;91.07
55263;BME280;41125;48.752;9.168;2023-03-15T01:47:24;96588.56;;;0.61;91.20
55263;BME280;41125;48.752;9.168;2023-03-15T01:47:56;96590.66;;;0.59;91.05
55263;BME280;41125;48.752;9.168;2023-03-15T01:49:13;96590.91;;;0.58;91.34
55263;BME280;41125;48.752;9.168;2023-03-15T01:49:49;96589.62;;;0.60;91.76
55263;BME280;41125;48.752;9.168;2023-03-15T01:50:22;96596.59;;;0.61;91.41
55263;BME280;41125;48.752;9.168;2023-03-15T01:50:56;96598.69;;;0.59;91.19
55263;BME280;41125;48.752;9.168;2023-03-15T01:51:38;96598.09;;;0.57;90.94
55263;BME280;41125;48.752;9.168;2023-03-15T01:52:16;96597.53;;;0.55;91.12
55263;BME280;41125;48.752;9.168;2023-03-15T01:52:50;96594.63;;;0.57;91.00
55263;BME280;41125;48.752;9.168;2023-03-15T01:53:25;96604.34;;;0.63;90.98
55263;BME280;41125;48.752;9.168;2023-03-15T01:54:33;96603.31;;;0.64;90.48
55263;BME280;41125;48.752;9.168;2023-03-15T01:55:10;96601.34;;;0.59;90.19
55263;BME280;41125;48.752;9.168;2023-03-15T01:55:43;96613.06;;;0.58;90.24
55263;BME280;41125;48.752;9.168;2023-03-15T01:56:15;96605.06;;;0.58;90.41
55263;BME280;41125;48.752;9.168;2023-03-15T01:57:11;96612.94;;;0.65;90.58
55263;BME280;41125;48.752;9.168;2023-03-15T01:57:52;96600.88;;;0.91;87.57
55263;BME280;41125;48.752;9.168;2023-03-15T01:58:26;96601.13;;;0.89;86.87
55263;BME280;41125;48.752;9.168;2023-03-15T01:59:02;96605.56;;;0.84;87.09
55263;BME280;41125;48.752;9.168;2023-03-15T01:59:39;96612.66;;;0.78;86.92
55263;BME280;41125;48.752;9.168;2023-03-15T02:00:14;96611.84;;;0.78;87.52
55263;BME280;41125;48.752;9.168;2023-03-15T02:00:50;96609.06;;;0.73;87.88
55263;BME280;41125;48.752;9.168;2023-03-15T02:01:23;96609.00;;;0.68;87.94
55263;BME280;41125;48.752;9.168;2023-03-15T02:01:57;96613.19;;;0.63;88.60
55263;BME280;41125;48.752;9.168;2023-03-15T02:02:30;96614.22;;;0.62;88.94
55263;BME280;41125;48.752;9.168;2023-03-15T02:03:14;96605.62;;;0.60;89.22
55263;BME280;41125;48.752;9.168;2023-03-15T02:03:57;96608.87;;;0.62;89.15
55263;BME280;41125;48.752;9.168;2023-03-15T02:04:34;96610.50;;;0.63;89.15
55263;BME280;41125;48.752;9.168;2023-03-15T02:05:08;96612.38;;;0.63;88.62
55263;BME280;41125;48.752;9.168;2023-03-15T02:05:48;96617.37;;;0.59;88.78
55263;BME280;41125;48.752;9.168;2023-03-15T02:06:25;96612.25;;;0.58;88.63
55263;BME280;41125;48.752;9.168;2023-03-15T02:07:01;96609.81;;;0.56;88.60
55263;BME280;41125;48.752;9.168;2023-03-15T02:07:34;96614.59;;;0.54;88.78
55263;BME280;41125;48.752;9.168;2023-03-15T02:08:07;96620.50;;;0.56;88.88
55263;BME280;41125;48.752;9.168;2023-03-15T02:08:44;96616.44;;;0.54;89.01
55263;BME280;41125;48.752;9.168;2023-03-15T02:09:17;96617.72;;;0.51;89.18
55263;BME280;41125;48.752;9.168;2023-03-15T02:10:03;96623.53;;;0.48;89.38
55263;BME280;41125;48.752;9.168;2023-03-15T02:10:48;96614.72;;;0.48;89.45
55263;BME280;41125;48.752;9.168;2023-03-15T02:11:22;96626.19;;;0.48;89.53
55263;BME280;41125;48.752;9.168;2023-03-15T02:11:55;96630.16;;;0.46;89.32
55263;BME280;41125;48.752;9.168;2023-03-15T02:12:29;96629.34;;;0.45;89.23
55263;BME280;41125;48.752;9.168;2023-03-15T02:13:02;96621.00;;;0.42;89.45
55263;BME280;41125;48.752;9.168;2023-03-15T02:13:34;96626.31;;;0.42;89.48
55263;BME280;41125;48.752;9.168;2023-03-15T02:14:08;96622.84;;;0.41;89.16
55263;BME280;41125;48.752;9.168;2023-03-15T02:14:41;96624.94;;;0.39;89.80
55263;BME280;41125;48.752;9.168;2023-03-15T02:15:14;96627.03;;;0.37;90.00
55263;BME280;41125;48.752;9.168;2023-03-15T02:15:46;96634.00;;;0.38;90.20
55263;BME280;41125;48.752;9.168;2023-03-15T02:16:18;96628.06;;;0.36;89.97
55263;BME280;41125;48.752;9.168;2023-03-15T02:16:51;96631.25;;;0.33;90.14
55263;BME280;41125;48.752;9.168;2023-03-15T02:17:30;96629.63;;;0.32;90.29
55263;BME280;41125;48.752;9.168;2023-03-15T02:18:04;96629.03;;;0.30;90.10
55263;BME280;41125;48.752;9.168;2023-03-15T02:18:35;96630.09;;;0.29;90.26
55263;BME280;41125;48.752;9.168;2023-03-15T02:19:11;96630.09;;;0.29;89.69
55263;BME280;41125;48.752;9.168;2023-03-15T02:21:34;96628.28;;;0.46;89.20
55263;BME280;41125;48.752;9.168;2023-03-15T02:23:20;96627.72;;;0.44;89.12
55263;BME280;41125;48.752;9.168;2023-03-15T02:25:17;96627.13;;;0.42;89.33
55263;BME280;41125;48.752;9.168;2023-03-15T02:27:29;96627.72;;;0.44;88.96
55263;BME280;41125;48.752;9.168;2023-03-15T02:28:03;96637.00;;;0.42;88.69
55263;BME280;41125;48.752;9.168;2023-03-15T02:28:36;96628.66;;;0.38;88.61
55263;BME280;41125;48.752;9.168;2023-03-15T02:29:07;96636.78;;;0.43;89.04
55263;BME280;41125;48.752;9.168;2023-03-15T02:29:39;96637.00;;;0.42;88.88
55263;BME280;41125;48.752;9.168;2023-03-15T02:30:12;96637.00;;;0.42;89.05
55263;BME280;41125;48.752;9.168;2023-03-15T02:30:44;96633.53;;;0.41;88.54
55263;BME280;41125;48.752;9.168;2023-03-15T02:31:16;96635.16;;;0.42;88.58
55263;BME280;41125;48.752;9.168;2023-03-15T02:31:51;96635.16;;;0.42;88.57
55263;BME280;41125;48.752;9.168;2023-03-15T02:32:23;96636.78;;;0.43;88.59
55263;BME280;41125;48.752;9.168;2023-03-15T02:32:57;96640.03;;;0.45;88.62
55263;BME280;41125;48.752;9.168;2023-03-15T02:33:33;96633.88;;;0.45;88.15
55263;BME280;41125;48.752;9.168;2023-03-15T02:34:07;96640.25;;;0.44;87.92
55263;BME280;41125;48.752;9.168;2023-03-15T02:34:39;96633.06;;;0.44;88.17
55263;BME280;41125;48.752;9.168;2023-03-15T02:35:10;96629.00;;;0.42;87.59
55263;BME280;41125;48.752;9.168;2023-03-15T02:35:42;96641.28;;;0.43;88.15
55263;BME280;41125;48.752;9.168;2023-03-15T02:36:21;96644.53;;;0.45;87.87
55263;BME280;41125;48.752;9.168;2023-03-15T02:36:53;96647.44;;;0.43;88.38
55263;BME280;41125;48.752;9.168;2023-03-15T02:37:25;96649.53;;;0.41;87.64
55263;BME280;41125;48.752;9.168;2023-03-15T02:37:58;96648.16;;;0.39;87.73
55263;BME280;41125;48.752;9.168;2023-03-15T02:38:29;96645.47;;;0.39;88.03
55263;BME280;41125;48.752;9.168;2023-03-15T02:39:01;96644.66;;;0.38;88.59
55263;BME280;41125;48.752;9.168;2023-03-15T02:39:34;96651.41;;;0.41;88.91
55263;BME280;41125;48.752;9.168;2023-03-15T02:40:18;96654.06;;;0.41;88.89
55263;BME280;41125;48.752;9.168;2023-03-15T02:40:52;96655.47;;;0.43;88.98
55263;BME280;41125;48.752;9.168;2023-03-15T02:41:29;96655.22;;;0.45;89.05
55263;BME280;41125;48.752;9.168;2023-03-15T02:42:04;96661.38;;;0.45;88.90
55263;BME280;41125;48.752;9.168;2023-03-15T02:42:37;96660.31;;;0.46;88.46
55263;BME280;41125;48.752;9.168;2023-03-15T02:43:16;96664.97;;;0.51;88.24
55263;BME280;41125;48.752;9.168;2023-03-15T02:43:53;96662.53;;;0.49;87.52
55263;BME280;41125;48.752;9.168;2023-03-15T02:44:31;96662.53;;;0.49;87.62
55263;BME280;41125;48.752;9.168;2023-03-15T02:45:04;96668.34;;;0.46;87.69
55263;BME280;41125;48.752;9.168;2023-03-15T02:45:36;96662.66;;;0.43;87.59
55263;BME280;41125;48.752;9.168;2023-03-15T02:46:09;96664.50;;;0.42;87.39
55263;BME280;41125;48.752;9.168;2023-03-15T02:46:42;96670.87;;;0.41;87.77
55263;BME280;41125;48.752;9.168;2023-03-15T02:47:20;96674.12;;;0.43;87.57
55263;BME280;41125;48.752;9.168;2023-03-15T02:47:57;96672.41;;;0.49;87.89
55263;BME280;41125;48.752;9.168;2023-03-15T02:48:32;96668.22;;;0.53;87.32
55263;BME280;41125;48.752;9.168;2023-03-15T02:49:06;96666.47;;;0.58;86.56
55263;BME280;41125;48.752;9.168;2023-03-15T02:49:58;96676.34;;;0.58;85.82
55263;BME280;41125;48.752;9.168;2023-03-15T02:50:29;96672.28;;;0.55;86.30
55263;BME280;41125;48.752;9.168;2023-03-15T02:51:01;96673.78;;;0.51;86.32
55263;BME280;41125;48.752;9.168;2023-03-15T02:51:33;96678.44;;;0.56;86.34
55263;BME280;41125;48.752;9.168;2023-03-15T02:52:05;96674.38;;;0.53;85.61
55263;BME280;41125;48.752;9.168;2023-03-15T02:52:36;96677.37;;;0.57;86.19
55263;BME280;41125;48.752;9.168;2023-03-15T02:53:08;96665.53;;;0.64;85.30
55263;BME280;41125;48.752;9.168;2023-03-15T02:53:40;96684.81;;;0.66;84.72
55263;BME280;41125;48.752;9.168;2023-03-15T02:54:11;96678.06;;;0.64;84.25
55263;BME280;41125;48.752;9.168;2023-03-15T02:54:42;96679.59;;;0.60;84.58
55263;BME280;41125;48.752;9.168;2023-03-15T02:55:16;96682.84;;;0.62;84.85
55263;BME280;41125;48.752;9.168;2023-03-15T02:55:51;96678.97;;;0.70;84.34
55263;BME280;41125;48.752;9.168;2023-03-15T02:56:23;96681.09;;;0.68;84.38
55263;BME280;41125;48.752;9.168;2023-03-15T02:56:57;96682.38;;;0.65;84.05
55263;BME280;41125;48.752;9.168;2023-03-15T02:57:29;96682.03;;;0.61;84.06
55263;BME280;41125;48.752;9.168;2023-03-15T02:58:01;96684.13;;;0.59;84.43
55263;BME280;41125;48.752;9.168;2023-03-15T02:58:32;96685.16;;;0.58;84.43
55263;BME280;41125;48.752;9.168;2023-03-15T02:59:04;96687.81;;;0.58;84.68
55263;BME280;41125;48.752;9.168;2023-03-15T02:59:35;96685.16;;;0.58;85.12
55263;BME280;41125;48.752;9.168;2023-03-15T03:00:07;96686.19;;;0.57;85.22
55263;BME280;41125;48.752;9.168;2023-03-15T03:00:44;96693.75;;;0.60;85.25
55263;BME280;41125;48.752;9.168;2023-03-15T03:01:17;96689.44;;;0.59;85.06
55263;BME280;41125;48.752;9.168;2023-03-15T03:01:48;96697.69;;;0.58;84.79
55263;BME280;41125;48.752;9.168;2023-03-15T03:02:20;96691.53;;;0.57;85.21
55263;BME280;41125;48.752;9.168;2023-03-15T03:02:52;96697.94;;;0.56;84.97
55263;BME280;41125;48.752;9.168;2023-03-15T03:03:23;96694.22;;;0.57;85.52
55263;BME280;41125;48.752;9.168;2023-03-15T03:03:54;96696.88;;;0.57;85.13
55263;BME280;41125;48.752;9.168;2023-03-15T03:04:25;96693.16;;;0.58;85.50
55263;BME280;41125;48.752;9.168;2023-03-15T03:04:57;96696.41;;;0.60;85.29
55263;BME280;41125;48.752;9.168;2023-03-15T03:05:28;96697.47;;;0.59;84.91
55263;BME280;41125;48.752;9.168;2023-03-15T03:05:59;96697.47;;;0.59;84.94
55263;BME280;41125;48.752;9.168;2023-03-15T03:06:31;96694.31;;;0.62;84.64
55263;BME280;41125;48.752;9.168;2023-03-15T03:07:03;96702.91;;;0.64;84.71
55263;BME280;41125;48.752;9.168;2023-03-15T03:07:34;96706.25;;;0.72;84.18
55263;BME280;41125;48.752;9.168;2023-03-15T03:08:07;96703.09;;;0.75;83.18
55263;BME280;41125;48.752;9.168;2023-03-15T03:08:38;96704.25;;;0.79;83.50